createdAt,value
2022-09-03T00:01:31.276Z,28.51
2022-09-03T00:03:31.203Z,28.8
2022-09-03T00:06:31.258Z,28.62
2022-09-03T00:09:31.178Z,28.78
2022-09-03T00:11:31.223Z,28.61
2022-09-03T00:13:31.195Z,29.22
2022-09-03T00:16:31.180Z,28.89
2022-09-03T00:18:31.188Z,29.3
2022-09-03T00:21:31.224Z,29.09
2022-09-03T00:23:31.390Z,28.87
2022-09-03T00:26:31.190Z,29.2
2022-09-03T00:29:31.172Z,29.3
2022-09-03T00:32:31.173Z,29.12
2022-09-03T00:34:31.175Z,28.94
2022-09-03T00:37:33.685Z,29.35
2022-09-03T00:40:31.163Z,29.48
2022-09-03T00:42:31.166Z,29.55
2022-09-03T00:44:31.202Z,29.54
2022-09-03T00:46:31.491Z,29.25
2022-09-03T00:49:31.181Z,29.66
2022-09-03T00:52:33.588Z,29.61
2022-09-03T00:54:31.195Z,29.43
2022-09-03T00:56:31.202Z,29.63
2022-09-03T00:59:31.202Z,29.43
2022-09-03T01:02:31.288Z,29.73
2022-09-03T01:06:31.187Z,29.83
2022-09-03T01:08:41.493Z,29.68
2022-09-03T01:11:31.193Z,29.63
2022-09-03T01:13:31.229Z,29.69
2022-09-03T01:16:31.228Z,29.95
2022-09-03T01:19:31.210Z,30.06
2022-09-03T01:21:31.237Z,30.14
2022-09-03T01:24:31.203Z,30.32
2022-09-03T01:27:31.212Z,30.36
2022-09-03T01:29:31.229Z,30.12
2022-09-03T01:32:31.226Z,30.3
2022-09-03T01:34:31.227Z,30.39
2022-09-03T01:37:31.235Z,30.57
2022-09-03T01:40:31.194Z,30.59
2022-09-03T01:42:31.212Z,30.65
2022-09-03T01:45:31.219Z,30.66
2022-09-03T01:48:31.241Z,30.81
2022-09-03T01:51:31.199Z,30.75
2022-09-03T01:53:31.221Z,30.73
2022-09-03T01:56:31.242Z,31.07
2022-09-03T01:59:31.199Z,31.2
2022-09-03T02:01:31.319Z,31
2022-09-03T02:03:31.270Z,31.19
2022-09-03T02:06:31.238Z,30.85
2022-09-03T02:08:31.241Z,31
2022-09-03T02:11:31.263Z,31
2022-09-03T02:14:31.241Z,31.28
2022-09-03T02:16:31.269Z,31.17
2022-09-03T02:19:31.268Z,31.26
2022-09-03T02:22:31.234Z,31.45
2022-09-03T02:24:31.795Z,31.38
2022-09-03T02:27:31.252Z,31.6
2022-09-03T02:29:31.251Z,31.52
2022-09-03T02:32:31.251Z,31.8
2022-09-03T02:35:31.268Z,31.87
2022-09-03T02:38:31.237Z,31.78
2022-09-03T02:40:31.244Z,31.73
2022-09-03T02:43:31.460Z,32.11
2022-09-03T02:46:31.251Z,31.79
2022-09-03T02:48:31.300Z,31.89
2022-09-03T02:51:31.267Z,31.76
2022-09-03T02:53:31.242Z,31.72
2022-09-03T02:56:31.362Z,31.72
2022-09-03T02:59:31.267Z,31.86
2022-09-03T03:02:31.303Z,31.85
2022-09-03T03:05:31.261Z,31.95
2022-09-03T03:08:31.226Z,32.1
2022-09-03T03:10:31.230Z,32.16
2022-09-03T03:12:31.229Z,31.94
2022-09-03T03:15:31.221Z,32.03
2022-09-03T03:17:31.261Z,31.85
2022-09-03T03:20:31.236Z,31.91
2022-09-03T03:22:31.227Z,31.94
2022-09-03T03:24:31.234Z,32
2022-09-03T03:27:31.242Z,32.27
2022-09-03T03:30:31.288Z,32.15
2022-09-03T03:32:31.283Z,32.25
2022-09-03T03:35:31.257Z,32.4
2022-09-03T03:38:31.226Z,32.34
2022-09-03T03:40:31.250Z,32.55
2022-09-03T03:43:31.287Z,32.54
2022-09-03T03:46:31.231Z,32.57
2022-09-03T03:48:31.256Z,32.75
2022-09-03T03:51:31.283Z,33.08
2022-09-03T03:54:31.259Z,33.31
2022-09-03T03:56:31.244Z,33.56
2022-09-03T03:59:31.294Z,33.38
2022-09-03T04:02:31.330Z,33.41
2022-09-03T04:04:31.273Z,33.37
2022-09-03T04:07:46.750Z,33.86
2022-09-03T04:10:31.286Z,35.7
2022-09-03T04:12:31.280Z,35.28
2022-09-03T04:15:31.253Z,36.26
2022-09-03T04:17:31.620Z,36.64
2022-09-03T04:20:31.253Z,38.16
2022-09-03T04:22:31.322Z,37.73
2022-09-03T04:25:31.287Z,36.41
2022-09-03T04:28:31.260Z,36.91
2022-09-03T04:30:31.323Z,37.14
2022-09-03T04:33:31.261Z,36.67
2022-09-03T04:35:31.273Z,38.11
2022-09-03T04:38:31.277Z,36.88
2022-09-03T04:41:31.267Z,37.48
2022-09-03T04:43:31.320Z,36.53
2022-09-03T04:45:31.353Z,37.27
2022-09-03T04:47:31.860Z,37.52
2022-09-03T04:50:31.312Z,37.61
2022-09-03T04:53:31.271Z,37.5
2022-09-03T04:55:31.287Z,36.96
2022-09-03T04:57:31.287Z,37.09
2022-09-03T05:00:31.280Z,36.31
2022-09-03T05:02:32.022Z,37.82
2022-09-03T05:05:31.305Z,37.17
2022-09-03T05:07:31.308Z,38.02
2022-09-03T05:10:31.342Z,37.75
2022-09-03T05:13:31.309Z,37.95
2022-09-03T05:15:31.261Z,38.39
2022-09-03T05:18:31.264Z,38.67
2022-09-03T05:20:31.298Z,39.04
2022-09-03T05:22:31.289Z,38.83
2022-09-03T05:25:31.317Z,39.64
2022-09-03T05:28:31.278Z,38.94
2022-09-03T05:33:31.332Z,38.76
2022-09-03T05:35:31.329Z,38.7
2022-09-03T05:38:31.268Z,39.17
2022-09-03T05:41:31.317Z,39.01
2022-09-03T05:44:31.335Z,39.03
2022-09-03T05:46:31.341Z,38.95
2022-09-03T05:49:31.278Z,39.26
2022-09-03T05:52:31.295Z,41
2022-09-03T05:54:31.319Z,41.52
2022-09-03T05:57:31.267Z,41.92
2022-09-03T05:59:31.297Z,41.05
2022-09-03T06:02:31.396Z,44.26
2022-09-03T06:05:31.324Z,45.14
2022-09-03T06:08:31.318Z,43.45
2022-09-03T06:11:31.285Z,43.16
2022-09-03T06:13:31.311Z,44.1
2022-09-03T06:15:31.316Z,44.01
2022-09-03T06:17:31.314Z,45.32
2022-09-03T06:20:35.075Z,43.93
2022-09-03T06:23:31.334Z,44.02
2022-09-03T06:25:31.347Z,44.97
2022-09-03T06:28:31.289Z,45.05
2022-09-03T06:31:31.336Z,44.57
2022-09-03T06:33:31.301Z,45.42
2022-09-03T06:35:31.411Z,44.73
2022-09-03T06:37:31.347Z,45.71
2022-09-03T06:40:31.308Z,44.66
2022-09-03T06:42:31.317Z,45.74
2022-09-03T06:44:31.390Z,46.1
2022-09-03T06:47:31.350Z,43.81
2022-09-03T06:50:34.467Z,43.5
2022-09-03T06:52:31.318Z,43.18
2022-09-03T06:54:31.326Z,45.13
2022-09-03T06:56:33.078Z,43.64
2022-09-03T06:59:38.517Z,43.3
2022-09-03T07:02:31.295Z,43.63
2022-09-03T07:04:38.518Z,43.06
2022-09-03T07:07:31.595Z,43
2022-09-03T07:10:31.288Z,43.49
2022-09-03T07:13:31.313Z,45.05
2022-09-03T07:15:31.332Z,44.83
2022-09-03T07:18:31.306Z,44.48
2022-09-03T07:20:31.310Z,45.27
2022-09-03T07:23:31.324Z,43.54
2022-09-03T07:26:31.321Z,43.26
2022-09-03T07:29:31.311Z,44.01
2022-09-03T07:32:31.303Z,43.97
2022-09-03T07:34:31.323Z,43.67
2022-09-03T07:36:35.393Z,45.12
2022-09-03T07:38:31.307Z,44.08
2022-09-03T07:41:31.286Z,43.63
2022-09-03T07:43:31.320Z,45.33
2022-09-03T07:47:35.879Z,44.35
2022-09-03T07:48:34.223Z,44.52
2022-09-03T07:51:31.281Z,46.27
2022-09-03T07:53:31.320Z,45.7
2022-09-03T07:56:31.349Z,44.79
2022-09-03T07:58:31.347Z,45.35
2022-09-03T08:01:31.307Z,44.07
2022-09-03T08:03:31.326Z,44.55
2022-09-03T08:06:31.326Z,45.65
2022-09-03T08:09:31.321Z,44.45
2022-09-03T08:11:31.343Z,45.59
2022-09-03T08:14:32.019Z,44.59
2022-09-03T08:17:31.333Z,44.25
2022-09-03T08:19:31.372Z,44.43
2022-09-03T08:22:31.360Z,44.5
2022-09-03T08:25:31.337Z,44.05
2022-09-03T08:28:31.348Z,45.43
2022-09-03T08:31:31.348Z,44.93
2022-09-03T08:33:31.337Z,46.38
2022-09-03T08:35:31.336Z,46
2022-09-03T08:38:31.340Z,46.63
2022-09-03T08:40:31.346Z,47.49
2022-09-03T08:43:31.348Z,46.47
2022-09-03T08:45:31.347Z,46.62
2022-09-03T08:48:31.377Z,46.47
2022-09-03T08:50:31.361Z,45.9
2022-09-03T08:52:31.375Z,47.99
2022-09-03T08:55:31.373Z,48.66
2022-09-03T08:58:31.335Z,49.07
2022-09-03T09:00:31.346Z,46.9
2022-09-03T09:03:31.364Z,47.52
2022-09-03T09:06:31.345Z,48.47
2022-09-03T09:08:31.356Z,47.34
2022-09-03T09:11:31.349Z,47.85
2022-09-03T09:13:31.389Z,47.45
2022-09-03T09:16:31.835Z,50.63
2022-09-03T09:19:31.384Z,51.36
2022-09-03T09:21:32.354Z,49.52
2022-09-03T09:24:31.367Z,50.45
2022-09-03T09:27:31.395Z,50.21
2022-09-03T09:30:31.367Z,50.98
2022-09-03T09:32:31.431Z,51.39
2022-09-03T09:35:31.406Z,48.5
2022-09-03T09:38:31.356Z,49.34
2022-09-03T09:41:31.363Z,49.49
2022-09-03T09:44:31.394Z,47.61
2022-09-03T09:47:31.379Z,48.19
2022-09-03T09:49:31.439Z,46.99
2022-09-03T09:52:31.376Z,46.45
2022-09-03T09:55:31.429Z,48.49
2022-09-03T09:58:47.259Z,47.05
2022-09-03T10:00:31.387Z,48.55
2022-09-03T10:03:31.371Z,47.78
2022-09-03T10:06:31.366Z,49.41
2022-09-03T10:08:31.400Z,49.83
2022-09-03T10:11:31.361Z,50.44
2022-09-03T10:14:31.353Z,49.08
2022-09-03T10:16:31.350Z,51.04
2022-09-03T10:18:31.712Z,50.65
2022-09-03T10:20:31.453Z,51.52
2022-09-03T10:23:31.366Z,51.26
2022-09-03T10:25:31.426Z,51.37
2022-09-03T10:27:31.966Z,52.06
2022-09-03T10:30:31.365Z,51.95
2022-09-03T10:32:33.995Z,50.69
2022-09-03T10:34:31.375Z,51.93
2022-09-03T10:37:31.371Z,51.22
2022-09-03T10:39:31.411Z,52.77
2022-09-03T10:41:31.387Z,51.74
2022-09-03T10:44:31.364Z,51.68
2022-09-03T10:46:31.444Z,51.29
2022-09-03T10:49:31.420Z,51.49
2022-09-03T10:52:31.409Z,51.75
2022-09-03T10:54:31.441Z,51.71
2022-09-03T10:57:31.445Z,51.05
2022-09-03T11:03:31.443Z,50.34
2022-09-03T11:06:31.419Z,51.22
2022-09-03T11:09:31.379Z,51.17
2022-09-03T11:11:31.428Z,51.32
2022-09-03T11:13:31.423Z,50.57
2022-09-03T11:16:31.398Z,49.91
2022-09-03T11:18:32.444Z,47.7
2022-09-03T11:21:25.770Z,49.25
2022-09-03T11:23:31.438Z,49.27
2022-09-03T11:25:31.402Z,49.49
2022-09-03T11:28:31.417Z,48.85
2022-09-03T11:30:31.614Z,48.54
2022-09-03T11:33:31.462Z,47.86
2022-09-03T11:36:31.409Z,46.66
2022-09-03T11:38:31.421Z,47.83
2022-09-03T11:41:31.427Z,48.06
2022-09-03T11:44:31.393Z,47.63
2022-09-03T11:46:31.464Z,48.17
2022-09-03T11:49:31.432Z,44.92
2022-09-03T11:52:31.409Z,46.25
2022-09-03T11:54:31.440Z,44.73
2022-09-03T11:56:31.431Z,47.5
2022-09-03T11:59:31.402Z,46.22
2022-09-03T12:01:31.430Z,44.28
2022-09-03T12:04:31.558Z,46
2022-09-03T12:07:31.420Z,46.68
2022-09-03T12:09:31.442Z,46.37
2022-09-03T12:12:31.431Z,46.8
2022-09-03T12:15:31.445Z,46.06
2022-09-03T12:17:38.594Z,46.87
2022-09-03T12:20:31.469Z,46.23
2022-09-03T12:23:31.403Z,47.2
2022-09-03T12:26:31.408Z,46.8
2022-09-03T12:28:31.440Z,46
2022-09-03T12:31:31.434Z,45.66
2022-09-03T12:34:31.411Z,44.11
2022-09-03T12:36:31.471Z,42.36
2022-09-03T12:41:31.541Z,42.68
2022-09-03T12:44:31.461Z,41.4
2022-09-03T12:47:36.320Z,43.23
2022-09-03T12:50:31.406Z,41.63
2022-09-03T12:52:31.439Z,41.07
2022-09-03T12:55:31.449Z,41.27
2022-09-03T12:57:32.298Z,39.75
2022-09-03T13:00:31.910Z,39.8
2022-09-03T13:03:31.452Z,40.21
2022-09-03T13:06:31.411Z,39.4
2022-09-03T13:08:31.444Z,39.4
2022-09-03T13:11:31.452Z,41.54
2022-09-03T13:14:31.414Z,39.22
2022-09-03T13:16:31.519Z,39.79
2022-09-03T13:19:31.417Z,38.38
2022-09-03T13:21:31.420Z,39.08
2022-09-03T13:24:31.536Z,38.54
2022-09-03T13:27:31.539Z,41.02
2022-09-03T13:30:31.531Z,38.39
2022-09-03T13:32:31.454Z,36.32
2022-09-03T13:34:31.419Z,36.31
2022-09-03T13:36:31.440Z,36.99
2022-09-03T13:39:31.592Z,36.14
2022-09-03T13:42:31.445Z,35.76
2022-09-03T13:44:31.461Z,38.03
2022-09-03T13:47:31.532Z,37.78
2022-09-03T13:50:31.435Z,35.27
2022-09-03T13:52:31.485Z,35.62
2022-09-03T13:55:31.465Z,35.34
2022-09-03T13:58:31.622Z,38.56
2022-09-03T14:00:31.449Z,37.7
2022-09-03T14:03:31.450Z,36.88
2022-09-03T14:06:31.430Z,36.65
2022-09-03T14:08:31.493Z,38.18
2022-09-03T14:11:31.460Z,37.43
2022-09-03T14:13:31.484Z,35.55
2022-09-03T14:15:31.449Z,35.92
2022-09-03T14:18:31.468Z,36.59
2022-09-03T14:20:31.467Z,37.21
2022-09-03T14:23:31.472Z,39.46
2022-09-03T14:25:31.490Z,39.06
2022-09-03T14:28:31.437Z,39.09
2022-09-03T14:30:31.436Z,40.36
2022-09-03T14:32:31.982Z,39.71
2022-09-03T14:35:31.494Z,41.44
2022-09-03T14:37:31.489Z,41.31
2022-09-03T14:39:32.555Z,41.05
2022-09-03T14:41:31.491Z,41.42
2022-09-03T14:44:31.467Z,41.54
2022-09-03T14:46:31.495Z,47.03
2022-09-03T14:49:31.500Z,45.79
2022-09-03T14:52:31.482Z,45.79
2022-09-03T14:54:31.506Z,47.14
2022-09-03T14:56:31.528Z,47.1
2022-09-03T14:59:31.511Z,48.84
2022-09-03T15:02:32.244Z,47.86
2022-09-03T15:05:31.494Z,50.12
2022-09-03T15:07:31.507Z,48.74
2022-09-03T15:10:31.500Z,48.12
2022-09-03T15:12:31.538Z,48.76
2022-09-03T15:15:31.489Z,49.52
2022-09-03T15:18:31.482Z,50.3
2022-09-03T15:20:31.500Z,51.92
2022-09-03T15:23:31.467Z,49.74
2022-09-03T15:25:31.510Z,49.66
2022-09-03T15:27:31.489Z,48.99
2022-09-03T15:30:31.500Z,49.79
2022-09-03T15:32:31.518Z,50.83
2022-09-03T15:34:31.873Z,50.94
2022-09-03T15:37:31.494Z,51.37
2022-09-03T15:40:31.562Z,50.83
2022-09-03T15:42:31.509Z,50.06
2022-09-03T15:45:31.662Z,51.33
2022-09-03T15:47:35.199Z,51.58
2022-09-03T15:49:31.510Z,50.52
2022-09-03T15:52:31.507Z,50.59
2022-09-03T15:54:31.531Z,50.72
2022-09-03T15:57:31.499Z,49.23
2022-09-03T15:59:31.514Z,49.97
2022-09-03T16:02:31.511Z,50.48
2022-09-03T16:04:39.161Z,49.23
2022-09-03T16:07:31.471Z,50.66
2022-09-03T16:09:31.500Z,50.28
2022-09-03T16:11:31.500Z,50.9
2022-09-03T16:13:31.508Z,50.99
2022-09-03T16:16:31.711Z,52.58
2022-09-03T16:19:31.492Z,52.76
2022-09-03T16:22:31.570Z,54.06
2022-09-03T16:25:31.500Z,53.12
2022-09-03T16:27:31.572Z,53.27
2022-09-03T16:30:31.474Z,53.44
2022-09-03T16:32:31.546Z,54.24
2022-09-03T16:35:31.503Z,53.62
2022-09-03T16:38:31.489Z,54.42
2022-09-03T16:40:31.491Z,53.51
2022-09-03T16:42:31.535Z,53.59
2022-09-03T16:44:31.527Z,53.5
2022-09-03T16:47:31.504Z,54.15
2022-09-03T16:49:34.825Z,54.77
2022-09-03T16:51:31.494Z,56.69
2022-09-03T16:53:31.483Z,57.32
2022-09-03T16:56:31.503Z,55.41
2022-09-03T16:59:31.496Z,53.36
2022-09-03T17:02:40.983Z,53.9
2022-09-03T17:05:31.551Z,54.41
2022-09-03T17:08:31.508Z,53.05
2022-09-03T17:10:31.490Z,50.56
2022-09-03T17:12:31.525Z,52.53
2022-09-03T17:14:31.522Z,52.13
2022-09-03T17:17:31.537Z,52.26
2022-09-03T17:19:31.517Z,52.61
2022-09-03T17:22:31.542Z,53.12
2022-09-03T17:25:31.545Z,54.08
2022-09-03T17:28:31.540Z,53.99
2022-09-03T17:30:31.518Z,54.36
2022-09-03T17:32:31.543Z,54.1
2022-09-03T17:34:31.565Z,53.5
2022-09-03T17:37:31.540Z,53.14
2022-09-03T17:40:31.496Z,53.18
2022-09-03T17:42:31.536Z,53.9
2022-09-03T17:45:38.758Z,54.52
2022-09-03T17:48:31.498Z,53.04
2022-09-03T17:50:31.526Z,53.43
2022-09-03T17:53:31.539Z,53.67
2022-09-03T17:56:31.507Z,53.91
2022-09-03T17:58:31.529Z,53.58
2022-09-03T18:00:31.516Z,53.73
2022-09-03T18:03:31.536Z,53.79
2022-09-03T18:05:31.574Z,54.64
2022-09-03T18:08:31.564Z,54.33
2022-09-03T18:10:31.565Z,54.18
2022-09-03T18:13:31.570Z,54.72
2022-09-03T18:16:31.726Z,54.19
2022-09-03T18:19:31.529Z,53.73
2022-09-03T18:21:32.218Z,53
2022-09-03T18:24:31.527Z,53.95
2022-09-03T18:27:31.551Z,53.32
2022-09-03T18:30:31.564Z,53.75
2022-09-03T18:32:31.589Z,53.91
2022-09-03T18:35:31.573Z,53.85
2022-09-03T18:38:31.529Z,54.09
2022-09-03T18:40:31.569Z,53.44
2022-09-03T18:42:31.575Z,52.95
2022-09-03T18:45:42.227Z,52.19
2022-09-03T18:48:04.412Z,52.44
2022-09-03T18:50:31.583Z,52.85
2022-09-03T18:52:31.579Z,53.03
2022-09-03T18:54:45.254Z,53
2022-09-03T18:57:31.562Z,51.96
2022-09-03T18:59:31.657Z,52.85
2022-09-03T19:02:31.640Z,53.08
2022-09-03T19:04:31.624Z,53.31
2022-09-03T19:06:34.104Z,52.87
2022-09-03T19:08:31.708Z,52.92
2022-09-03T19:11:31.619Z,54.17
2022-09-03T19:14:31.608Z,53.54
2022-09-03T19:17:31.563Z,53.48
2022-09-03T19:19:31.569Z,53.19
2022-09-03T19:22:31.593Z,52.8
2022-09-03T19:25:31.587Z,53.51
2022-09-03T19:27:52.044Z,53.06
2022-09-03T19:30:31.600Z,52.22
2022-09-03T19:32:31.594Z,53.08
2022-09-03T19:35:31.613Z,52.05
2022-09-03T19:38:31.946Z,52.55
2022-09-03T19:41:31.552Z,51.94
2022-09-03T19:43:34.898Z,52.32
2022-09-03T19:46:31.666Z,51.95
2022-09-03T19:48:31.619Z,52.31
2022-09-03T19:51:31.605Z,53.33
2022-09-03T19:54:31.575Z,52.55
2022-09-03T19:56:31.607Z,52.54
2022-09-03T20:00:33.371Z,51.97
2022-09-03T20:02:31.700Z,52.52
2022-09-03T20:05:31.602Z,51.91
2022-09-03T20:08:31.580Z,51.92
2022-09-03T20:11:31.567Z,51.99
2022-09-03T20:14:31.553Z,52.73
2022-09-03T20:16:31.599Z,52.64
2022-09-03T20:19:31.561Z,51.8
2022-09-03T20:22:31.566Z,51.31
2022-09-03T20:24:31.588Z,52.25
2022-09-03T20:26:31.599Z,52.49
2022-09-03T20:28:31.619Z,51.55
2022-09-03T20:31:31.638Z,51.24
2022-09-03T20:33:31.572Z,52.31
2022-09-03T20:36:31.585Z,52.08
2022-09-03T20:39:31.623Z,51.32
2022-09-03T20:42:32.120Z,51.47
2022-09-03T20:45:31.590Z,51.7
2022-09-03T20:48:31.611Z,52.48
2022-09-03T20:51:31.571Z,52.14
2022-09-03T20:53:31.638Z,52
2022-09-03T20:56:31.598Z,51.38
2022-09-03T20:58:31.626Z,52.29
2022-09-03T21:01:31.626Z,51.31
2022-09-03T21:03:31.618Z,51.22
2022-09-03T21:05:41.884Z,52.76
2022-09-03T21:08:52.145Z,52.6
2022-09-03T21:10:53.850Z,51.76
2022-09-03T21:13:41.972Z,52.14
2022-09-03T21:16:31.760Z,53.37
2022-09-03T21:19:31.568Z,52.75
2022-09-03T21:21:35.507Z,52.99
2022-09-03T21:23:31.635Z,53.19
2022-09-03T21:26:31.599Z,53.25
2022-09-03T21:28:31.638Z,52.16
2022-09-03T21:30:31.738Z,52.77
2022-09-03T21:33:31.625Z,52.78
2022-09-03T21:36:31.637Z,52.03
2022-09-03T21:38:31.647Z,52.05
2022-09-03T21:44:31.653Z,51.7
2022-09-03T21:47:31.688Z,51.97
2022-09-03T21:50:31.675Z,51.9
2022-09-03T21:52:32.351Z,53.88
2022-09-03T21:55:31.633Z,53.1
2022-09-03T21:58:31.670Z,53.62
2022-09-03T22:01:31.677Z,52.92
2022-09-03T22:03:31.640Z,53.61
2022-09-03T22:06:31.648Z,54.16
2022-09-03T22:09:31.601Z,53.98
2022-09-03T22:11:31.629Z,52.3
2022-09-03T22:14:31.595Z,54.41
2022-09-03T22:16:31.709Z,54.09
2022-09-03T22:19:31.699Z,53.02
2022-09-03T22:22:31.623Z,52.31
2022-09-03T22:24:31.718Z,54.37
2022-09-03T22:27:31.628Z,53.39
2022-09-03T22:30:31.645Z,53.02
2022-09-03T22:32:31.623Z,52.22
2022-09-03T22:34:38.824Z,52.39
2022-09-03T22:36:31.631Z,52.8
2022-09-03T22:39:31.652Z,52.68
2022-09-03T22:42:31.610Z,52.59
2022-09-03T22:44:31.687Z,53.01
2022-09-03T22:47:31.986Z,52.9
2022-09-03T22:50:31.643Z,53.18
2022-09-03T22:53:31.629Z,52.78
2022-09-03T22:55:31.655Z,52.72
2022-09-03T22:58:31.643Z,52.72
2022-09-03T23:00:31.663Z,52.85
2022-09-03T23:02:31.661Z,52.32
2022-09-03T23:04:31.652Z,53.26
2022-09-03T23:06:32.587Z,52.72
2022-09-03T23:09:31.663Z,54.47
2022-09-03T23:11:31.680Z,53.7
2022-09-03T23:14:31.703Z,53.61
2022-09-03T23:19:31.695Z,53.14
2022-09-03T23:21:31.690Z,53.16
2022-09-03T23:23:31.708Z,53.08
2022-09-03T23:26:31.689Z,52.73
2022-09-03T23:28:31.712Z,53.42
2022-09-03T23:32:04.095Z,54.45
2022-09-03T23:33:31.693Z,54.41
2022-09-03T23:36:55.347Z,53.3
2022-09-03T23:39:31.730Z,53.64
2022-09-03T23:41:31.696Z,54.27
2022-09-03T23:44:31.658Z,54.2
2022-09-03T23:46:32.141Z,53.91
2022-09-03T23:49:31.698Z,53.73
2022-09-03T23:51:31.675Z,54.26
2022-09-03T23:54:31.677Z,54.66
2022-09-03T23:57:31.666Z,55.36
